Time;durP1;ratioP1;P1;durP2;ratioP2;P2;SDS_P1;SDS_P2;PMS_P1;PMS_P2;Temp;Humidity;BMP_temperature;BMP_pressure;BME280_temperature;BME280_humidity;BME280_pressure;Samples;Min_cycle;Max_cycle;Signal;HPM_P1;HPM_P2
2021/01/05 00:01:36;;;;;;;31.33;28.73;;;;;;;;;;5053214;28;20205;-81
2021/01/05 00:04:02;;;;;;;31.70;29.33;;;;;;;;;;5054345;28;20204;-81
2021/01/05 00:06:29;;;;;;;32.33;29.73;;;;;;;;;;5054097;28;20188;-82
2021/01/05 00:08:56;;;;;;;31.27;28.85;;;;;;;;;;5054100;28;20545;-82
2021/01/05 00:11:24;;;;;;;30.75;28.27;;;;;;;;;;5054476;28;20193;-81
2021/01/05 00:13:51;;;;;;;30.13;27.73;;;;;;;;;;5053960;28;20193;-81
2021/01/05 00:16:18;;;;;;;31.73;29.05;;;;;;;;;;5052681;28;20215;-81
2021/01/05 00:18:45;;;;;;;31.27;28.80;;;;;;;;;;5054037;28;20189;-81
2021/01/05 00:21:11;;;;;;;29.75;27.45;;;;;;;;;;5053921;28;20245;-81
2021/01/05 00:23:38;;;;;;;29.65;27.35;;;;;;;;;;5054596;28;20188;-81
2021/01/05 00:26:05;;;;;;;31.15;28.70;;;;;;;;;;5053898;28;20246;-81
2021/01/05 00:28:33;;;;;;;32.30;29.40;;;;;;;;;;5054339;28;20189;-81
2021/01/05 00:31:00;;;;;;;31.75;29.20;;;;;;;;;;5054163;28;20212;-81
2021/01/05 00:33:27;;;;;;;32.40;29.70;;;;;;;;;;5054196;28;20195;-81
2021/01/05 00:35:54;;;;;;;30.85;28.38;;;;;;;;;;5054178;28;20193;-81
2021/01/05 00:38:20;;;;;;;29.90;27.58;;;;;;;;;;5054852;28;20188;-81
2021/01/05 00:40:47;;;;;;;31.75;29.05;;;;;;;;;;5054093;28;20204;-81
2021/01/05 00:43:14;;;;;;;32.13;29.55;;;;;;;;;;5053669;28;20207;-81
2021/01/05 00:45:42;;;;;;;31.52;28.75;;;;;;;;;;5054038;28;20184;-81
2021/01/05 00:48:09;;;;;;;31.52;28.92;;;;;;;;;;5053853;28;20233;-81
2021/01/05 00:50:37;;;;;;;30.52;28.02;;;;;;;;;;5053734;28;20220;-81
2021/01/05 00:53:04;;;;;;;31.40;28.77;;;;;;;;;;5053574;28;20282;-81
2021/01/05 00:55:30;;;;;;;32.10;29.45;;;;;;;;;;5053495;28;20238;-81
2021/01/05 00:57:57;;;;;;;31.23;28.63;;;;;;;;;;5053590;28;20534;-81
2021/01/05 01:00:26;;;;;;;30.67;28.08;;;;;;;;;;5053905;28;20189;-81
2021/01/05 01:02:54;;;;;;;28.83;26.63;;;;;;;;;;5053616;28;20555;-81
2021/01/05 01:05:21;;;;;;;30.15;27.83;;;;;;;;;;5056762;28;20188;-81
2021/01/05 01:07:48;;;;;;;30.70;28.20;;;;;;;;;;5056763;28;20196;-82
2021/01/05 01:10:16;;;;;;;29.38;27.05;;;;;;;;;;5057866;28;20223;-81
2021/01/05 01:12:43;;;;;;;29.33;26.85;;;;;;;;;;5057586;28;20195;-81
2021/01/05 01:15:12;;;;;;;29.75;27.25;;;;;;;;;;5057819;28;20184;-81
2021/01/05 01:17:39;;;;;;;29.52;27.05;;;;;;;;;;5057847;28;20201;-81
2021/01/05 01:20:07;;;;;;;29.55;27.15;;;;;;;;;;5057222;28;20200;-81
2021/01/05 01:22:34;;;;;;;28.40;26.20;;;;;;;;;;5057773;28;20216;-81
2021/01/05 01:25:01;;;;;;;29.98;27.58;;;;;;;;;;5057260;28;20192;-81
2021/01/05 01:27:28;;;;;;;30.30;27.73;;;;;;;;;;5057687;28;20524;-81
2021/01/05 01:29:55;;;;;;;29.15;26.77;;;;;;;;;;5057156;28;20219;-81
2021/01/05 01:32:22;;;;;;;31.10;28.40;;;;;;;;;;5057149;28;20196;-81
2021/01/05 01:34:48;;;;;;;31.20;28.42;;;;;;;;;;5057359;28;20199;-81
2021/01/05 01:37:17;;;;;;;30.58;28.08;;;;;;;;;;5057478;28;20189;-81
2021/01/05 01:39:46;;;;;;;32.50;29.58;;;;;;;;;;5057300;28;20229;-81
2021/01/05 01:42:14;;;;;;;32.90;30.02;;;;;;;;;;5058022;28;20640;-81
2021/01/05 01:44:42;;;;;;;31.98;29.25;;;;;;;;;;5057296;28;20194;-81
2021/01/05 01:47:16;;;;;;;33.65;30.85;;;;;;;;;;5057199;28;20188;-81
2021/01/05 01:49:45;;;;;;;33.67;30.48;;;;;;;;;;5057008;28;20225;-81
2021/01/05 01:52:12;;;;;;;33.03;30.20;;;;;;;;;;5055512;28;20235;-81
2021/01/05 01:54:56;;;;;;;26.52;24.33;;;;;;;;;;5056778;28;20188;-80
2021/01/05 01:57:37;;;;;;;33.38;30.30;;;;;;;;;;5056507;28;20200;-81
2021/01/05 02:00:19;;;;;;;31.85;29.02;;;;;;;;;;5055941;28;20201;-81
2021/01/05 02:02:54;;;;;;;34.10;31.20;;;;;;;;;;5057201;28;20224;-81
2021/01/05 02:05:23;;;;;;;31.13;28.30;;;;;;;;;;5056696;28;20207;-81
2021/01/05 02:08:11;;;;;;;32.88;30.08;;;;;;;;;;5057090;28;20197;-81
2021/01/05 02:10:47;;;;;;;34.42;31.17;;;;;;;;;;5051550;28;20236;-81
2021/01/05 02:13:29;;;;;;;32.83;29.90;;;;;;;;;;5056760;28;20197;-81
2021/01/05 02:16:05;;;;;;;33.30;30.30;;;;;;;;;;5023915;28;20249;-81
2021/01/05 02:18:37;;;;;;;33.90;30.80;;;;;;;;;;5056760;28;20188;-81
2021/01/05 02:21:06;;;;;;;31.63;28.83;;;;;;;;;;5056188;28;20220;-81
2021/01/05 02:23:38;;;;;;;34.80;31.63;;;;;;;;;;5056761;28;20199;-81
2021/01/05 02:26:10;;;;;;;33.75;30.40;;;;;;;;;;5056524;28;20239;-81
2021/01/05 02:28:39;;;;;;;32.75;29.80;;;;;;;;;;5056122;28;20529;-81
2021/01/05 02:31:13;;;;;;;34.28;31.13;;;;;;;;;;5056383;28;20220;-81
2021/01/05 02:33:45;;;;;;;34.50;31.40;;;;;;;;;;5056083;28;20188;-80
2021/01/05 02:36:25;;;;;;;35.72;32.22;;;;;;;;;;5056250;28;20185;-81
2021/01/05 02:39:01;;;;;;;37.10;33.63;;;;;;;;;;5057267;28;20602;-81
2021/01/05 02:41:38;;;;;;;34.72;31.50;;;;;;;;;;5056431;28;20189;-81
2021/01/05 02:44:29;;;;;;;34.13;31.23;;;;;;;;;;5055936;28;20193;-81
2021/01/05 02:46:57;;;;;;;36.55;33.03;;;;;;;;;;5041167;28;20205;-81
2021/01/05 02:49:41;;;;;;;36.72;33.13;;;;;;;;;;5055866;28;20189;-82
2021/01/05 02:52:20;;;;;;;34.92;31.42;;;;;;;;;;5055577;28;20293;-81
2021/01/05 02:55:08;;;;;;;35.28;31.60;;;;;;;;;;5055589;28;20196;-81
2021/01/05 02:57:45;;;;;;;37.00;33.40;;;;;;;;;;5055742;28;20551;-81
2021/01/05 03:00:27;;;;;;;33.70;30.60;;;;;;;;;;5055766;28;20196;-81
2021/01/05 03:03:02;;;;;;;34.80;31.10;;;;;;;;;;5055814;28;20521;-81
2021/01/05 03:05:29;;;;;;;34.40;31.05;;;;;;;;;;5055756;28;20183;-81
2021/01/05 03:07:56;;;;;;;35.88;32.15;;;;;;;;;;5055669;28;20199;-81
2021/01/05 03:10:41;;;;;;;35.55;32.00;;;;;;;;;;5055672;28;20222;-81
2021/01/05 03:13:23;;;;;;;34.20;30.95;;;;;;;;;;5054000;28;20201;-81
2021/01/05 03:15:53;;;;;;;35.15;31.85;;;;;;;;;;5055420;28;20185;-81
2021/01/05 03:18:24;;;;;;;36.42;32.92;;;;;;;;;;5055506;28;20185;-81
2021/01/05 03:20:54;;;;;;;36.70;32.90;;;;;;;;;;5055592;28;20222;-80
2021/01/05 03:23:21;;;;;;;34.72;31.33;;;;;;;;;;5055246;28;20200;-81
2021/01/05 03:25:50;;;;;;;35.35;31.92;;;;;;;;;;5054073;28;20190;-81
2021/01/05 03:28:20;;;;;;;33.70;30.50;;;;;;;;;;5054805;28;20580;-81
2021/01/05 03:30:48;;;;;;;37.85;33.95;;;;;;;;;;5055224;28;20239;-81
2021/01/05 03:33:15;;;;;;;35.83;32.33;;;;;;;;;;5055303;28;20191;-81
2021/01/05 03:35:42;;;;;;;34.72;31.52;;;;;;;;;;5054794;28;20549;-81
2021/01/05 03:38:09;;;;;;;33.70;30.58;;;;;;;;;;5055884;28;20220;-81
2021/01/05 03:40:36;;;;;;;35.63;31.75;;;;;;;;;;5055218;28;20188;-81
2021/01/05 03:43:03;;;;;;;32.63;29.65;;;;;;;;;;5054754;28;20189;-81
2021/01/05 03:45:30;;;;;;;33.83;30.52;;;;;;;;;;5054745;28;20708;-80
2021/01/05 03:47:57;;;;;;;34.35;31.17;;;;;;;;;;5054947;28;20565;-81
2021/01/05 03:50:26;;;;;;;35.33;31.73;;;;;;;;;;5054463;28;20602;-81
2021/01/05 03:52:53;;;;;;;34.00;30.70;;;;;;;;;;5054782;28;20587;-81
2021/01/05 03:55:20;;;;;;;34.47;31.15;;;;;;;;;;5054136;28;20288;-81
2021/01/05 03:57:47;;;;;;;34.15;30.80;;;;;;;;;;5054877;28;20254;-81
2021/01/05 04:00:17;;;;;;;35.10;31.88;;;;;;;;;;5054868;28;20190;-81
2021/01/05 04:02:45;;;;;;;35.75;32.20;;;;;;;;;;5054758;28;20184;-81
2021/01/05 04:05:13;;;;;;;35.70;32.40;;;;;;;;;;5054635;28;20294;-81
2021/01/05 04:07:41;;;;;;;35.42;32.20;;;;;;;;;;5054391;28;20575;-81
2021/01/05 04:10:10;;;;;;;39.00;34.95;;;;;;;;;;5053215;28;20236;-81
2021/01/05 04:12:37;;;;;;;37.50;33.80;;;;;;;;;;5053250;28;20675;-80
2021/01/05 04:15:05;;;;;;;36.17;31.95;;;;;;;;;;5053316;28;20204;-81
2021/01/05 04:17:32;;;;;;;37.22;33.35;;;;;;;;;;5054463;28;20585;-81
2021/01/05 04:19:59;;;;;;;36.80;32.63;;;;;;;;;;5054176;28;20197;-80
2021/01/05 04:22:26;;;;;;;35.70;32.13;;;;;;;;;;5054227;28;20199;-81
2021/01/05 04:24:53;;;;;;;33.42;30.20;;;;;;;;;;5054355;28;20203;-81
2021/01/05 04:27:20;;;;;;;35.45;31.85;;;;;;;;;;5054019;28;20200;-81
2021/01/05 04:29:47;;;;;;;30.42;27.63;;;;;;;;;;5054163;28;20758;-81
2021/01/05 04:32:14;;;;;;;34.10;30.60;;;;;;;;;;5054130;28;20565;-81
2021/01/05 04:34:41;;;;;;;33.60;30.60;;;;;;;;;;5053954;28;20204;-82
2021/01/05 04:37:08;;;;;;;34.38;31.10;;;;;;;;;;5053767;28;20184;-81
2021/01/05 04:39:35;;;;;;;34.58;31.35;;;;;;;;;;5052070;28;20228;-81
2021/01/05 04:42:06;;;;;;;34.55;31.20;;;;;;;;;;5053876;28;20200;-81
2021/01/05 04:44:42;;;;;;;34.70;31.20;;;;;;;;;;5053788;28;20657;-81
2021/01/05 04:47:17;;;;;;;36.35;32.63;;;;;;;;;;5053796;28;20195;-81
2021/01/05 04:50:04;;;;;;;35.58;32.00;;;;;;;;;;5053673;28;20221;-81
2021/01/05 04:52:34;;;;;;;32.05;29.13;;;;;;;;;;5048802;28;20234;-81
2021/01/05 04:55:05;;;;;;;34.17;30.98;;;;;;;;;;5054178;28;20230;-81
2021/01/05 04:57:34;;;;;;;31.20;28.30;;;;;;;;;;5053580;28;20193;-81
2021/01/05 05:00:05;;;;;;;35.65;32.25;;;;;;;;;;5053700;28;20577;-81
2021/01/05 05:02:41;;;;;;;33.53;30.15;;;;;;;;;;5053334;28;20188;-81
2021/01/05 05:05:19;;;;;;;35.85;32.25;;;;;;;;;;5053161;28;20619;-81
2021/01/05 05:07:53;;;;;;;34.63;31.55;;;;;;;;;;5053718;28;20188;-81
2021/01/05 05:10:26;;;;;;;34.17;30.85;;;;;;;;;;5053443;28;20219;-81
2021/01/05 05:12:58;;;;;;;34.20;31.20;;;;;;;;;;5035977;28;20203;-81
2021/01/05 05:15:40;;;;;;;36.03;32.72;;;;;;;;;;5053562;28;20192;-81
2021/01/05 05:18:22;;;;;;;33.40;30.30;;;;;;;;;;5051349;28;20653;-81
2021/01/05 05:21:02;;;;;;;34.50;31.30;;;;;;;;;;5051012;28;20211;-81
2021/01/05 05:23:39;;;;;;;34.80;31.45;;;;;;;;;;5053394;28;20192;-81
2021/01/05 05:26:09;;;;;;;33.75;30.55;;;;;;;;;;5053471;28;20238;-81
2021/01/05 05:28:42;;;;;;;34.30;31.38;;;;;;;;;;5053518;28;20200;-81
2021/01/05 05:31:12;;;;;;;35.65;32.08;;;;;;;;;;5053488;28;20220;-81
2021/01/05 05:33:39;;;;;;;35.88;32.28;;;;;;;;;;5053512;28;20645;-81
2021/01/05 05:36:18;;;;;;;35.10;31.88;;;;;;;;;;5053226;28;20517;-81
2021/01/05 05:39:02;;;;;;;37.65;33.85;;;;;;;;;;5053441;28;20221;-81
2021/01/05 05:41:35;;;;;;;36.17;32.50;;;;;;;;;;5053286;28;20188;-81
2021/01/05 05:44:19;;;;;;;35.15;31.95;;;;;;;;;;5053632;28;20192;-81
2021/01/05 05:46:48;;;;;;;35.65;32.25;;;;;;;;;;5053977;28;20588;-81
2021/01/05 05:49:21;;;;;;;35.78;31.98;;;;;;;;;;5053123;28;20199;-81
2021/01/05 05:51:51;;;;;;;37.63;33.67;;;;;;;;;;5056735;28;20574;-81
2021/01/05 05:54:19;;;;;;;36.65;33.10;;;;;;;;;;5055975;28;20247;-81
2021/01/05 05:56:50;;;;;;;34.60;31.25;;;;;;;;;;5057082;28;20192;-81
2021/01/05 05:59:19;;;;;;;36.50;32.88;;;;;;;;;;5056808;28;20557;-81
2021/01/05 06:01:46;;;;;;;36.40;32.72;;;;;;;;;;5056893;28;20200;-81
2021/01/05 06:04:13;;;;;;;37.03;32.55;;;;;;;;;;5056898;28;20191;-81
2021/01/05 06:06:41;;;;;;;34.72;31.45;;;;;;;;;;5055775;28;20207;-81
2021/01/05 06:09:08;;;;;;;36.63;33.03;;;;;;;;;;5055834;28;20590;-81
2021/01/05 06:11:37;;;;;;;35.45;31.85;;;;;;;;;;5056332;28;20698;-81
2021/01/05 06:14:04;;;;;;;35.38;31.55;;;;;;;;;;5055511;28;20549;-81
2021/01/05 06:16:33;;;;;;;37.78;33.00;;;;;;;;;;5056321;28;20192;-81
2021/01/05 06:19:00;;;;;;;35.92;32.55;;;;;;;;;;5056435;28;20584;-81
2021/01/05 06:21:27;;;;;;;38.13;32.90;;;;;;;;;;5056911;28;20196;-80
2021/01/05 06:23:54;;;;;;;34.50;31.25;;;;;;;;;;5055338;28;20219;-81
2021/01/05 06:26:21;;;;;;;36.45;32.75;;;;;;;;;;5056299;28;20205;-81
2021/01/05 06:28:48;;;;;;;36.63;33.00;;;;;;;;;;5056493;28;20253;-81
2021/01/05 06:31:15;;;;;;;36.53;32.92;;;;;;;;;;5056461;28;20220;-81
2021/01/05 06:33:43;;;;;;;36.35;32.85;;;;;;;;;;5056532;28;20188;-81
2021/01/05 06:36:10;;;;;;;35.20;31.90;;;;;;;;;;5056264;28;20185;-81
2021/01/05 06:38:37;;;;;;;37.85;34.05;;;;;;;;;;5056331;28;20263;-81
2021/01/05 06:41:04;;;;;;;37.38;33.38;;;;;;;;;;5056248;28;20192;-81
2021/01/05 06:43:31;;;;;;;37.25;33.72;;;;;;;;;;5056077;28;20215;-81
2021/01/05 06:45:58;;;;;;;35.28;31.88;;;;;;;;;;5055952;28;20204;-81
2021/01/05 06:48:25;;;;;;;38.70;33.40;;;;;;;;;;5056070;28;20545;-80
2021/01/05 06:50:53;;;;;;;37.70;33.83;;;;;;;;;;5054431;28;20228;-81
2021/01/05 06:53:20;;;;;;;38.05;34.35;;;;;;;;;;5055556;28;20705;-81
2021/01/05 06:55:47;;;;;;;38.30;33.92;;;;;;;;;;5055953;28;21002;-81
2021/01/05 06:58:14;;;;;;;38.38;34.65;;;;;;;;;;5055886;28;20188;-81
2021/01/05 07:00:40;;;;;;;38.30;34.35;;;;;;;;;;5055877;28;20189;-81
2021/01/05 07:03:07;;;;;;;35.30;31.85;;;;;;;;;;5054916;28;20570;-81
2021/01/05 07:05:34;;;;;;;35.25;31.73;;;;;;;;;;5054592;28;20200;-80
2021/01/05 07:08:02;;;;;;;34.95;31.30;;;;;;;;;;5054426;28;20274;-81
2021/01/05 07:10:29;;;;;;;37.28;33.15;;;;;;;;;;5054980;28;20229;-81
2021/01/05 07:12:56;;;;;;;38.20;32.78;;;;;;;;;;5054263;28;20226;-81
2021/01/05 07:15:23;;;;;;;36.13;32.53;;;;;;;;;;5055694;28;20553;-81
2021/01/05 07:17:50;;;;;;;36.38;32.58;;;;;;;;;;5054412;28;20224;-81
2021/01/05 07:20:17;;;;;;;41.28;35.47;;;;;;;;;;5055449;28;20196;-81
2021/01/05 07:22:44;;;;;;;38.28;34.22;;;;;;;;;;5055570;28;20271;-81
2021/01/05 07:25:13;;;;;;;37.38;33.55;;;;;;;;;;5055093;28;20197;-81
2021/01/05 07:27:40;;;;;;;37.05;33.45;;;;;;;;;;5055003;28;20214;-81
2021/01/05 07:30:08;;;;;;;40.42;34.30;;;;;;;;;;5054834;28;20224;-81
2021/01/05 07:32:35;;;;;;;37.78;33.85;;;;;;;;;;5054795;28;20193;-81
2021/01/05 07:35:02;;;;;;;36.00;32.55;;;;;;;;;;5055197;28;20241;-81
2021/01/05 07:37:30;;;;;;;36.90;32.97;;;;;;;;;;5055300;28;20193;-81
2021/01/05 07:39:57;;;;;;;37.70;33.63;;;;;;;;;;5054998;28;20234;-81
2021/01/05 07:42:27;;;;;;;38.40;34.00;;;;;;;;;;5054841;28;20190;-81
2021/01/05 07:44:55;;;;;;;41.58;35.33;;;;;;;;;;5055064;28;20644;-81
2021/01/05 07:47:23;;;;;;;49.58;36.90;;;;;;;;;;5054647;28;20596;-81
2021/01/05 07:49:50;;;;;;;36.30;32.40;;;;;;;;;;5054591;28;20200;-81
2021/01/05 07:52:18;;;;;;;39.60;34.30;;;;;;;;;;5054499;28;20243;-82
2021/01/05 07:54:45;;;;;;;39.22;35.22;;;;;;;;;;5054847;28;20239;-82
2021/01/05 07:57:12;;;;;;;42.33;35.20;;;;;;;;;;5055098;28;20619;-81
2021/01/05 07:59:40;;;;;;;42.35;35.28;;;;;;;;;;5054739;28;20223;-81
2021/01/05 08:02:07;;;;;;;44.40;35.70;;;;;;;;;;5054765;28;20207;-81
2021/01/05 08:04:34;;;;;;;40.63;36.45;;;;;;;;;;5054830;28;20215;-80
2021/01/05 08:07:01;;;;;;;42.78;35.83;;;;;;;;;;5054373;28;20201;-81
2021/01/05 08:09:28;;;;;;;42.15;36.13;;;;;;;;;;5054722;28;20193;-81
2021/01/05 08:11:55;;;;;;;48.65;36.45;;;;;;;;;;5054538;28;20227;-81
2021/01/05 08:14:22;;;;;;;39.95;34.35;;;;;;;;;;5054246;28;20192;-81
2021/01/05 08:16:50;;;;;;;36.92;33.00;;;;;;;;;;5053369;28;20200;-82
2021/01/05 08:19:17;;;;;;;37.80;33.67;;;;;;;;;;5054378;28;20253;-82
2021/01/05 08:21:44;;;;;;;41.38;35.78;;;;;;;;;;5054681;28;20203;-80
2021/01/05 08:24:11;;;;;;;41.97;35.65;;;;;;;;;;5053978;28;20185;-85
2021/01/05 08:26:38;;;;;;;37.85;33.85;;;;;;;;;;5054135;28;20192;-77
2021/01/05 08:29:05;;;;;;;38.13;33.35;;;;;;;;;;5053874;28;20191;-81
2021/01/05 08:31:33;;;;;;;43.58;36.60;;;;;;;;;;5053913;28;20578;-81
2021/01/05 08:34:01;;;;;;;40.25;35.90;;;;;;;;;;5054119;28;20242;-81
2021/01/05 08:36:28;;;;;;;38.75;34.55;;;;;;;;;;5053835;28;20188;-77
2021/01/05 08:38:55;;;;;;;37.72;33.92;;;;;;;;;;5053988;28;20227;-77
2021/01/05 08:41:22;;;;;;;34.20;31.10;;;;;;;;;;5053947;28;20228;-77
2021/01/05 08:43:49;;;;;;;37.00;33.50;;;;;;;;;;5053620;28;20188;-80
2021/01/05 08:46:21;;;;;;;36.80;33.20;;;;;;;;;;5052693;28;20196;-81
2021/01/05 08:48:47;;;;;;;36.55;32.95;;;;;;;;;;5054026;28;20289;-79
2021/01/05 08:51:16;;;;;;;37.15;33.35;;;;;;;;;;5053718;28;20219;-77
2021/01/05 08:53:42;;;;;;;36.40;32.85;;;;;;;;;;5053455;28;20232;-77
2021/01/05 08:56:19;;;;;;;35.50;31.92;;;;;;;;;;5053841;28;20224;-77
2021/01/05 08:58:46;;;;;;;34.28;30.95;;;;;;;;;;5053477;28;20200;-77
2021/01/05 09:01:13;;;;;;;34.17;31.17;;;;;;;;;;5053608;28;20193;-77
2021/01/05 09:03:40;;;;;;;34.67;31.17;;;;;;;;;;5053447;28;20188;-77
2021/01/05 09:06:08;;;;;;;32.70;29.60;;;;;;;;;;5054119;28;20218;-77
2021/01/05 09:08:36;;;;;;;35.65;32.25;;;;;;;;;;5053346;28;20235;-77
2021/01/05 09:11:04;;;;;;;37.33;33.42;;;;;;;;;;5053261;28;20265;-77
2021/01/05 09:13:31;;;;;;;34.20;30.95;;;;;;;;;;5053764;28;20258;-77
2021/01/05 09:15:57;;;;;;;35.72;32.15;;;;;;;;;;5053745;28;20192;-77
2021/01/05 09:18:24;;;;;;;35.72;32.25;;;;;;;;;;5053215;28;20231;-77
2021/01/05 09:20:51;;;;;;;36.17;32.42;;;;;;;;;;5053565;28;20197;-77
2021/01/05 09:23:22;;;;;;;37.25;33.50;;;;;;;;;;5053150;28;20258;-77
2021/01/05 09:25:51;;;;;;;34.83;31.42;;;;;;;;;;5055553;28;20546;-77
2021/01/05 09:28:18;;;;;;;35.72;31.90;;;;;;;;;;5057193;28;20188;-77
2021/01/05 09:30:46;;;;;;;36.10;32.40;;;;;;;;;;5057159;28;20212;-77
2021/01/05 09:33:13;;;;;;;38.67;34.78;;;;;;;;;;5057163;28;20669;-77
2021/01/05 09:35:40;;;;;;;38.17;34.58;;;;;;;;;;5057097;28;20203;-76
2021/01/05 09:38:08;;;;;;;36.17;32.83;;;;;;;;;;5056708;28;20225;-77
2021/01/05 09:40:36;;;;;;;36.92;33.33;;;;;;;;;;5057328;28;20661;-77
2021/01/05 09:43:05;;;;;;;41.33;37.15;;;;;;;;;;5055718;28;20288;-76
2021/01/05 09:45:32;;;;;;;35.35;32.22;;;;;;;;;;5057229;28;20237;-77
2021/01/05 09:48:05;;;;;;;38.63;34.70;;;;;;;;;;5056835;28;20188;-76
2021/01/05 09:50:32;;;;;;;36.45;32.88;;;;;;;;;;5056846;28;20258;-76
2021/01/05 09:52:59;;;;;;;37.20;33.45;;;;;;;;;;5056906;28;20285;-78
2021/01/05 09:55:26;;;;;;;37.20;33.35;;;;;;;;;;5057607;28;20208;-77
2021/01/05 09:57:53;;;;;;;34.88;31.25;;;;;;;;;;5057098;28;20215;-77
2021/01/05 10:00:22;;;;;;;37.33;33.63;;;;;;;;;;5055580;28;20593;-76
2021/01/05 10:02:49;;;;;;;33.63;30.48;;;;;;;;;;5056985;28;20197;-77
2021/01/05 10:05:16;;;;;;;36.50;32.95;;;;;;;;;;5056821;28;20188;-77
2021/01/05 10:07:43;;;;;;;36.75;33.10;;;;;;;;;;5056455;28;20681;-77
2021/01/05 10:10:15;;;;;;;37.42;33.92;;;;;;;;;;5056697;28;20189;-76
2021/01/05 10:12:42;;;;;;;36.58;32.88;;;;;;;;;;5056372;28;20188;-79
2021/01/05 10:15:09;;;;;;;36.05;32.35;;;;;;;;;;5056457;28;20189;-77
2021/01/05 10:17:37;;;;;;;35.60;31.85;;;;;;;;;;5056343;28;20188;-79
2021/01/05 10:20:05;;;;;;;36.50;32.67;;;;;;;;;;5054869;28;20188;-78
2021/01/05 10:22:32;;;;;;;37.53;33.70;;;;;;;;;;5056353;28;20188;-79
2021/01/05 10:24:59;;;;;;;37.03;33.65;;;;;;;;;;5056469;28;20213;-79
2021/01/05 10:27:25;;;;;;;34.85;31.50;;;;;;;;;;5056213;28;20197;-79
2021/01/05 10:29:55;;;;;;;39.85;35.67;;;;;;;;;;5056314;28;20188;-76
2021/01/05 10:32:22;;;;;;;38.45;34.72;;;;;;;;;;5055916;28;20739;-77
2021/01/05 10:34:50;;;;;;;37.15;33.50;;;;;;;;;;5056033;28;20559;-76
2021/01/05 10:37:17;;;;;;;36.22;32.58;;;;;;;;;;5054740;28;20196;-77
2021/01/05 10:39:44;;;;;;;35.90;32.15;;;;;;;;;;5055724;28;20248;-77
2021/01/05 10:42:10;;;;;;;36.78;32.88;;;;;;;;;;5055684;28;20199;-76
2021/01/05 10:44:37;;;;;;;33.50;30.25;;;;;;;;;;5055987;28;20188;-77
2021/01/05 10:47:06;;;;;;;36.67;32.60;;;;;;;;;;5055795;28;20651;-77
2021/01/05 10:49:33;;;;;;;34.08;31.02;;;;;;;;;;5055665;28;20241;-77
2021/01/05 10:52:02;;;;;;;34.97;31.63;;;;;;;;;;5055047;28;20720;-77
2021/01/05 10:54:29;;;;;;;36.45;32.72;;;;;;;;;;5055844;28;20549;-77
2021/01/05 10:56:57;;;;;;;35.17;32.00;;;;;;;;;;5055465;28;20242;-78
2021/01/05 10:59:24;;;;;;;33.47;30.38;;;;;;;;;;5055694;28;20184;-77
2021/01/05 11:01:51;;;;;;;36.42;32.70;;;;;;;;;;5055857;28;20209;-79
2021/01/05 11:04:18;;;;;;;34.63;31.52;;;;;;;;;;5055371;28;20204;-80
2021/01/05 11:06:51;;;;;;;35.22;31.92;;;;;;;;;;5055321;28;20258;-82
2021/01/05 11:09:19;;;;;;;35.15;31.75;;;;;;;;;;5055606;28;20189;-80
2021/01/05 11:11:47;;;;;;;35.47;31.88;;;;;;;;;;5055268;28;20216;-79
2021/01/05 11:14:15;;;;;;;35.08;31.83;;;;;;;;;;5055515;28;20223;-79
2021/01/05 11:16:47;;;;;;;36.40;32.70;;;;;;;;;;5055083;28;20544;-79
2021/01/05 11:19:14;;;;;;;40.67;36.63;;;;;;;;;;5054954;28;20239;-78
2021/01/05 11:21:41;;;;;;;35.25;31.95;;;;;;;;;;5054774;28;20188;-79
2021/01/05 11:24:08;;;;;;;38.17;34.60;;;;;;;;;;5055247;28;20558;-79
2021/01/05 11:26:36;;;;;;;37.80;33.83;;;;;;;;;;5054932;28;20196;-78
2021/01/05 11:29:04;;;;;;;35.80;32.22;;;;;;;;;;5055162;28;20258;-79
2021/01/05 11:31:30;;;;;;;36.47;33.17;;;;;;;;;;5055039;28;20216;-79
2021/01/05 11:33:58;;;;;;;40.80;37.00;;;;;;;;;;5055073;28;20189;-79
2021/01/05 11:36:26;;;;;;;36.58;32.90;;;;;;;;;;5054788;28;20258;-79
2021/01/05 11:38:53;;;;;;;36.45;32.85;;;;;;;;;;5054637;28;20751;-78
2021/01/05 11:41:24;;;;;;;37.88;34.25;;;;;;;;;;5055038;28;20189;-79
2021/01/05 11:43:52;;;;;;;40.10;35.92;;;;;;;;;;5054941;28;20263;-79
2021/01/05 11:46:18;;;;;;;33.97;30.38;;;;;;;;;;5054918;28;20192;-79
2021/01/05 11:48:45;;;;;;;36.28;32.92;;;;;;;;;;5054987;28;20200;-79
2021/01/05 11:51:16;;;;;;;37.00;33.17;;;;;;;;;;5054669;28;20201;-80
2021/01/05 11:53:43;;;;;;;35.97;32.55;;;;;;;;;;5053793;28;20228;-80
2021/01/05 11:56:10;;;;;;;33.40;30.23;;;;;;;;;;5055471;28;20310;-79
2021/01/05 11:58:37;;;;;;;34.58;31.58;;;;;;;;;;5054751;28;20212;-78
2021/01/05 12:01:05;;;;;;;35.85;32.55;;;;;;;;;;5054658;28;20195;-79
2021/01/05 12:03:31;;;;;;;35.00;31.35;;;;;;;;;;5054520;28;20197;-79
2021/01/05 12:05:58;;;;;;;34.40;31.10;;;;;;;;;;5055205;28;20200;-79
2021/01/05 12:08:25;;;;;;;33.90;30.58;;;;;;;;;;5054507;28;20195;-79
2021/01/05 12:10:52;;;;;;;35.20;32.03;;;;;;;;;;5054081;28;20212;-79
2021/01/05 12:13:19;;;;;;;33.35;30.05;;;;;;;;;;5054390;28;20200;-79
2021/01/05 12:15:46;;;;;;;34.03;30.92;;;;;;;;;;5054090;28;20185;-79
2021/01/05 12:18:13;;;;;;;33.03;30.15;;;;;;;;;;5054032;28;20575;-79
2021/01/05 12:20:41;;;;;;;35.95;32.78;;;;;;;;;;5053723;28;20197;-79
2021/01/05 12:23:07;;;;;;;32.38;29.40;;;;;;;;;;5054704;28;20208;-79
2021/01/05 12:25:35;;;;;;;31.95;29.23;;;;;;;;;;5054428;28;20193;-79
2021/01/05 12:28:03;;;;;;;32.90;30.10;;;;;;;;;;5054064;28;20572;-79
2021/01/05 12:30:29;;;;;;;34.10;31.05;;;;;;;;;;5053719;28;20216;-78
2021/01/05 12:32:56;;;;;;;34.88;31.45;;;;;;;;;;5054054;28;20589;-78
2021/01/05 12:35:24;;;;;;;34.17;31.08;;;;;;;;;;5054373;28;20193;-79
2021/01/05 12:37:51;;;;;;;35.25;31.83;;;;;;;;;;5053773;28;20216;-79
2021/01/05 12:40:18;;;;;;;33.20;30.10;;;;;;;;;;5053942;28;20203;-79
2021/01/05 12:42:45;;;;;;;34.13;30.92;;;;;;;;;;5053624;28;20207;-79
2021/01/05 12:45:12;;;;;;;32.30;29.45;;;;;;;;;;5053739;28;20296;-79
2021/01/05 12:47:39;;;;;;;32.88;29.88;;;;;;;;;;5054259;28;20197;-79
2021/01/05 12:50:07;;;;;;;34.15;30.92;;;;;;;;;;5053356;28;20203;-79
2021/01/05 12:52:37;;;;;;;33.67;29.88;;;;;;;;;;5053436;28;20245;-79
2021/01/05 12:55:05;;;;;;;34.63;31.73;;;;;;;;;;5053778;28;20196;-79
2021/01/05 12:57:32;;;;;;;34.90;31.63;;;;;;;;;;5053717;28;20316;-79
2021/01/05 13:00:00;;;;;;;33.15;30.23;;;;;;;;;;5052540;28;20199;-80
2021/01/05 13:02:30;;;;;;;33.92;30.77;;;;;;;;;;5053707;28;20188;-79
2021/01/05 13:04:56;;;;;;;34.67;31.58;;;;;;;;;;5053738;28;20185;-79
2021/01/05 13:07:24;;;;;;;31.52;28.83;;;;;;;;;;5053969;28;20200;-79
2021/01/05 13:09:54;;;;;;;35.45;32.05;;;;;;;;;;5053404;28;20246;-79
2021/01/05 13:12:21;;;;;;;35.17;31.52;;;;;;;;;;5053361;28;20222;-79
2021/01/05 13:14:48;;;;;;;35.53;32.20;;;;;;;;;;5053574;28;20231;-79
2021/01/05 13:17:14;;;;;;;34.53;31.15;;;;;;;;;;5053372;28;20188;-79
2021/01/05 13:19:41;;;;;;;37.53;33.60;;;;;;;;;;5052984;28;20705;-80
2021/01/05 13:22:08;;;;;;;39.17;35.28;;;;;;;;;;5053445;28;20273;-80
2021/01/05 13:24:35;;;;;;;38.75;35.20;;;;;;;;;;5053753;28;20190;-80
2021/01/05 13:27:04;;;;;;;38.53;34.70;;;;;;;;;;5053433;28;20631;-79
2021/01/05 13:29:32;;;;;;;44.28;36.67;;;;;;;;;;5053480;28;20197;-80
2021/01/05 13:32:01;;;;;;;38.42;33.75;;;;;;;;;;5053018;28;20239;-80
2021/01/05 13:34:30;;;;;;;36.30;32.40;;;;;;;;;;5053254;28;20212;-80
2021/01/05 13:36:58;;;;;;;39.05;34.83;;;;;;;;;;5053009;28;20637;-80
2021/01/05 13:39:25;;;;;;;38.00;34.50;;;;;;;;;;5052931;28;20318;-80
2021/01/05 13:41:52;;;;;;;38.17;34.55;;;;;;;;;;5053294;28;20705;-80
2021/01/05 13:44:20;;;;;;;38.10;34.17;;;;;;;;;;5053065;28;20203;-79
2021/01/05 13:46:47;;;;;;;43.80;39.17;;;;;;;;;;5053276;28;20197;-80
2021/01/05 13:49:16;;;;;;;41.53;37.33;;;;;;;;;;5052807;28;20200;-80
2021/01/05 13:51:44;;;;;;;35.45;31.92;;;;;;;;;;5053062;28;20298;-80
2021/01/05 13:54:15;;;;;;;36.53;32.83;;;;;;;;;;5053223;28;20322;-80
2021/01/05 13:56:42;;;;;;;37.60;33.85;;;;;;;;;;5053381;28;20196;-79
2021/01/05 13:59:09;;;;;;;33.97;30.80;;;;;;;;;;5053257;28;20590;-79
2021/01/05 14:01:37;;;;;;;36.70;33.25;;;;;;;;;;5052882;28;20625;-80
2021/01/05 14:04:04;;;;;;;35.78;32.63;;;;;;;;;;5053537;28;20192;-79
2021/01/05 14:06:33;;;;;;;36.83;33.22;;;;;;;;;;5053156;28;20217;-79
2021/01/05 14:09:00;;;;;;;37.42;33.65;;;;;;;;;;5052758;28;20200;-79
2021/01/05 14:11:28;;;;;;;38.50;34.72;;;;;;;;;;5054704;28;20255;-80
2021/01/05 14:13:55;;;;;;;36.80;33.40;;;;;;;;;;5056338;28;20227;-82
2021/01/05 14:16:23;;;;;;;38.17;34.35;;;;;;;;;;5056653;28;20204;-81
2021/01/05 14:18:52;;;;;;;38.63;35.03;;;;;;;;;;5056502;28;20202;-80
2021/01/05 14:21:24;;;;;;;38.05;34.28;;;;;;;;;;5056440;28;20197;-80
2021/01/05 14:23:51;;;;;;;37.03;33.53;;;;;;;;;;5056428;28;20596;-79
2021/01/05 14:26:18;;;;;;;38.58;34.90;;;;;;;;;;5056569;28;20238;-83